sensor_id;sensor_type;location;lat;lon;timestamp;pressure;altitude;pressure_sealevel;temperature;humidity
8294;BME280;4185;41.506;24.938;2023-02-04T00:02:23;93361.25;;;-0.77;76.73
8294;BME280;4185;41.506;24.938;2023-02-04T00:04:52;93358.06;;;-0.72;76.22
8294;BME280;4185;41.506;24.938;2023-02-04T00:07:18;93360.00;;;-0.73;76.47
8294;BME280;4185;41.506;24.938;2023-02-04T00:09:45;93352.00;;;-0.73;76.64
8294;BME280;4185;41.506;24.938;2023-02-04T00:12:14;93351.34;;;-0.77;76.09
8294;BME280;4185;41.506;24.938;2023-02-04T00:14:41;93348.31;;;-0.79;76.27
8294;BME280;4185;41.506;24.938;2023-02-04T00:17:08;93347.56;;;-0.79;76.75
8294;BME280;4185;41.506;24.938;2023-02-04T00:19:37;93347.34;;;-0.85;77.10
8294;BME280;4185;41.506;24.938;2023-02-04T00:22:06;93345.81;;;-0.86;77.10
8294;BME280;4185;41.506;24.938;2023-02-04T00:24:33;93331.16;;;-0.94;76.59
8294;BME280;4185;41.506;24.938;2023-02-04T00:27:01;93336.50;;;-0.94;76.65
8294;BME280;4185;41.506;24.938;2023-02-04T00:29:28;93339.34;;;-0.85;76.78
8294;BME280;4185;41.506;24.938;2023-02-04T00:31:54;93335.84;;;-0.82;77.03
8294;BME280;4185;41.506;24.938;2023-02-04T00:34:21;93329.41;;;-0.84;78.25
8294;BME280;4185;41.506;24.938;2023-02-04T00:36:48;93331.50;;;-0.92;78.48
8294;BME280;4185;41.506;24.938;2023-02-04T00:39:16;93327.31;;;-0.93;77.70
8294;BME280;4185;41.506;24.938;2023-02-04T00:41:43;93323.00;;;-0.87;78.16
8294;BME280;4185;41.506;24.938;2023-02-04T00:44:10;93314.50;;;-0.82;77.78
8294;BME280;4185;41.506;24.938;2023-02-04T00:46:38;93307.19;;;-0.78;78.21
8294;BME280;4185;41.506;24.938;2023-02-04T00:49:05;93299.19;;;-0.78;78.48
8294;BME280;4185;41.506;24.938;2023-02-04T00:51:35;93298.00;;;-0.77;77.86
8294;BME280;4185;41.506;24.938;2023-02-04T00:54:02;93296.09;;;-0.76;77.88
8294;BME280;4185;41.506;24.938;2023-02-04T00:56:31;93284.75;;;-0.80;77.93
8294;BME280;4185;41.506;24.938;2023-02-04T00:58:57;93264.78;;;-0.88;78.70
8294;BME280;4185;41.506;24.938;2023-02-04T01:01:24;93266.25;;;-0.87;78.39
8294;BME280;4185;41.506;24.938;2023-02-04T01:03:51;93280.34;;;-0.87;78.50
8294;BME280;4185;41.506;24.938;2023-02-04T01:06:18;93275.44;;;-0.88;79.34
8294;BME280;4185;41.506;24.938;2023-02-04T01:08:45;93264.59;;;-0.81;79.06
8294;BME280;4185;41.506;24.938;2023-02-04T01:11:12;93257.41;;;-0.68;78.87
8294;BME280;4185;41.506;24.938;2023-02-04T01:13:40;93257.84;;;-0.70;78.11
8294;BME280;4185;41.506;24.938;2023-02-04T01:16:07;93257.41;;;-0.68;78.08
8294;BME280;4185;41.506;24.938;2023-02-04T01:18:34;93257.31;;;-0.65;77.49
8294;BME280;4185;41.506;24.938;2023-02-04T01:21:02;93246.16;;;-0.60;77.32
8294;BME280;4185;41.506;24.938;2023-02-04T01:23:28;93241.97;;;-0.61;78.16
8294;BME280;4185;41.506;24.938;2023-02-04T01:25:55;93239.31;;;-0.61;78.23
8294;BME280;4185;41.506;24.938;2023-02-04T01:28:22;93227.47;;;-0.60;78.00
8294;BME280;4185;41.506;24.938;2023-02-04T01:30:51;93222.78;;;-0.56;78.11
8294;BME280;4185;41.506;24.938;2023-02-04T01:33:17;93221.28;;;-0.57;78.41
8294;BME280;4185;41.506;24.938;2023-02-04T01:35:44;93221.13;;;-0.50;77.69
8294;BME280;4185;41.506;24.938;2023-02-04T01:38:11;93223.25;;;-0.45;77.57
8294;BME280;4185;41.506;24.938;2023-02-04T01:40:38;93224.03;;;-0.44;77.17
8294;BME280;4185;41.506;24.938;2023-02-04T01:43:06;93209.59;;;-0.47;78.07
8294;BME280;4185;41.506;24.938;2023-02-04T01:45:33;93204.91;;;-0.43;77.61
8294;BME280;4185;41.506;24.938;2023-02-04T01:48:03;93197.97;;;-0.40;78.42
8294;BME280;4185;41.506;24.938;2023-02-04T01:50:30;93182.25;;;-0.51;77.64
8294;BME280;4185;41.506;24.938;2023-02-04T01:52:58;93192.22;;;-0.39;77.10
8294;BME280;4185;41.506;24.938;2023-02-04T01:55:27;93189.97;;;-0.40;77.34
8294;BME280;4185;41.506;24.938;2023-02-04T01:57:54;93181.25;;;-0.41;77.35
8294;BME280;4185;41.506;24.938;2023-02-04T02:00:25;93165.31;;;-0.44;78.24
8294;BME280;4185;41.506;24.938;2023-02-04T02:02:53;93161.25;;;-0.49;78.56
8294;BME280;4185;41.506;24.938;2023-02-04T02:05:23;93165.09;;;-0.50;78.50
8294;BME280;4185;41.506;24.938;2023-02-04T02:07:53;93159.09;;;-0.54;77.78
8294;BME280;4185;41.506;24.938;2023-02-04T02:10:21;93161.03;;;-0.54;78.15
8294;BME280;4185;41.506;24.938;2023-02-04T02:12:49;93152.72;;;-0.56;77.98
8294;BME280;4185;41.506;24.938;2023-02-04T02:15:18;93151.09;;;-0.54;78.65
8294;BME280;4185;41.506;24.938;2023-02-04T02:17:46;93154.19;;;-0.55;77.98
8294;BME280;4185;41.506;24.938;2023-02-04T02:20:16;93150.75;;;-0.56;78.77
8294;BME280;4185;41.506;24.938;2023-02-04T02:22:51;93146.81;;;-0.64;78.90
8294;BME280;4185;41.506;24.938;2023-02-04T02:25:22;93163.47;;;-0.60;78.81
8294;BME280;4185;41.506;24.938;2023-02-04T02:27:49;93168.28;;;-0.55;78.74
8294;BME280;4185;41.506;24.938;2023-02-04T02:30:17;93159.63;;;-0.59;79.44
8294;BME280;4185;41.506;24.938;2023-02-04T02:32:44;93162.94;;;-0.55;79.30
8294;BME280;4185;41.506;24.938;2023-02-04T02:35:13;93150.47;;;-0.58;79.77
8294;BME280;4185;41.506;24.938;2023-02-04T02:37:40;93136.03;;;-0.60;79.75
8294;BME280;4185;41.506;24.938;2023-02-04T02:40:08;93112.56;;;-0.65;80.22
8294;BME280;4185;41.506;24.938;2023-02-04T02:42:36;93119.41;;;-0.64;80.58
8294;BME280;4185;41.506;24.938;2023-02-04T02:45:09;93136.91;;;-0.63;80.18
8294;BME280;4185;41.506;24.938;2023-02-04T02:47:37;93130.81;;;-0.64;80.03
8294;BME280;4185;41.506;24.938;2023-02-04T02:50:05;93123.56;;;-0.63;80.53
8294;BME280;4185;41.506;24.938;2023-02-04T02:52:32;93112.56;;;-0.65;80.18
8294;BME280;4185;41.506;24.938;2023-02-04T02:54:59;93113.41;;;-0.68;80.69
8294;BME280;4185;41.506;24.938;2023-02-04T02:57:25;93099.31;;;-0.81;80.90
8294;BME280;4185;41.506;24.938;2023-02-04T02:59:54;93113.41;;;-0.68;81.18
8294;BME280;4185;41.506;24.938;2023-02-04T03:02:22;93111.09;;;-0.66;80.83
8294;BME280;4185;41.506;24.938;2023-02-04T03:04:53;93105.84;;;-0.70;80.04
8294;BME280;4185;41.506;24.938;2023-02-04T03:07:21;93102.66;;;-0.65;80.15
8294;BME280;4185;41.506;24.938;2023-02-04T03:09:49;93090.47;;;-0.66;80.11
8294;BME280;4185;41.506;24.938;2023-02-04T03:12:18;93088.03;;;-0.73;80.30
8294;BME280;4185;41.506;24.938;2023-02-04T03:14:45;93077.56;;;-0.80;79.97
8294;BME280;4185;41.506;24.938;2023-02-04T03:17:14;93074.78;;;-0.76;79.74
8294;BME280;4185;41.506;24.938;2023-02-04T03:19:41;93080.75;;;-0.72;79.71
8294;BME280;4185;41.506;24.938;2023-02-04T03:22:08;93059.19;;;-0.90;80.77
8294;BME280;4185;41.506;24.938;2023-02-04T03:24:36;93071.25;;;-0.86;80.99
8294;BME280;4185;41.506;24.938;2023-02-04T03:27:03;93072.94;;;-0.92;81.71
8294;BME280;4185;41.506;24.938;2023-02-04T03:29:30;93057.38;;;-0.81;80.74
8294;BME280;4185;41.506;24.938;2023-02-04T03:31:58;93051.22;;;-0.78;80.44
8294;BME280;4185;41.506;24.938;2023-02-04T03:34:26;93039.91;;;-0.82;81.29
8294;BME280;4185;41.506;24.938;2023-02-04T03:36:53;93043.94;;;-0.90;81.09
8294;BME280;4185;41.506;24.938;2023-02-04T03:39:20;93050.31;;;-1.00;81.47
8294;BME280;4185;41.506;24.938;2023-02-04T03:41:47;93045.81;;;-1.03;81.92
8294;BME280;4185;41.506;24.938;2023-02-04T03:44:13;93049.16;;;-0.99;81.37
8294;BME280;4185;41.506;24.938;2023-02-04T03:46:40;93047.13;;;-0.95;81.20
8294;BME280;4185;41.506;24.938;2023-02-04T03:49:07;93047.84;;;-1.07;81.53
8294;BME280;4185;41.506;24.938;2023-02-04T03:51:35;93026.97;;;-1.08;81.57
8294;BME280;4185;41.506;24.938;2023-02-04T03:54:02;93026.91;;;-1.21;81.86
8294;BME280;4185;41.506;24.938;2023-02-04T03:56:29;93025.63;;;-1.16;81.90
8294;BME280;4185;41.506;24.938;2023-02-04T03:58:56;93016.25;;;-1.21;82.04
8294;BME280;4185;41.506;24.938;2023-02-04T04:01:23;93022.56;;;-1.15;81.80
8294;BME280;4185;41.506;24.938;2023-02-04T04:03:50;93024.59;;;-1.06;80.99
8294;BME280;4185;41.506;24.938;2023-02-04T04:06:16;93017.03;;;-1.08;80.80
8294;BME280;4185;41.506;24.938;2023-02-04T04:08:45;93019.41;;;-1.10;81.01
8294;BME280;4185;41.506;24.938;2023-02-04T04:11:11;93023.34;;;-1.02;80.44
8294;BME280;4185;41.506;24.938;2023-02-04T04:13:38;93013.31;;;-0.98;80.40
8294;BME280;4185;41.506;24.938;2023-02-04T04:16:06;93012.06;;;-0.93;79.74
8294;BME280;4185;41.506;24.938;2023-02-04T04:18:33;93014.41;;;-0.95;79.20
8294;BME280;4185;41.506;24.938;2023-02-04T04:21:00;93008.63;;;-0.94;78.88
8294;BME280;4185;41.506;24.938;2023-02-04T04:23:27;93015.59;;;-0.96;79.32
8294;BME280;4185;41.506;24.938;2023-02-04T04:25:55;93007.47;;;-0.93;79.29
8294;BME280;4185;41.506;24.938;2023-02-04T04:28:22;93016.53;;;-0.90;78.41
8294;BME280;4185;41.506;24.938;2023-02-04T04:30:49;93010.66;;;-0.98;78.22
8294;BME280;4185;41.506;24.938;2023-02-04T04:33:16;93006.28;;;-1.04;78.45
8294;BME280;4185;41.506;24.938;2023-02-04T04:35:42;93006.16;;;-1.01;77.99
8294;BME280;4185;41.506;24.938;2023-02-04T04:38:09;93011.50;;;-1.01;78.21
8294;BME280;4185;41.506;24.938;2023-02-04T04:40:36;93015.34;;;-1.02;78.46
8294;BME280;4185;41.506;24.938;2023-02-04T04:43:04;93013.22;;;-1.07;78.17
8294;BME280;4185;41.506;24.938;2023-02-04T04:45:31;93008.84;;;-1.13;78.97
8294;BME280;4185;41.506;24.938;2023-02-04T04:47:58;93000.13;;;-1.30;78.83
8294;BME280;4185;41.506;24.938;2023-02-04T04:50:25;92984.66;;;-1.48;80.11
8294;BME280;4185;41.506;24.938;2023-02-04T04:52:52;92972.13;;;-1.63;80.77
8294;BME280;4185;41.506;24.938;2023-02-04T04:55:18;92990.09;;;-1.67;81.51
8294;BME280;4185;41.506;24.938;2023-02-04T04:57:45;92989.69;;;-1.66;81.41
8294;BME280;4185;41.506;24.938;2023-02-04T05:00:16;92982.88;;;-1.67;81.11
8294;BME280;4185;41.506;24.938;2023-02-04T05:02:44;92980.88;;;-1.63;81.74
8294;BME280;4185;41.506;24.938;2023-02-04T05:05:11;92983.97;;;-1.64;81.63
8294;BME280;4185;41.506;24.938;2023-02-04T05:07:38;92985.94;;;-1.68;81.71
8294;BME280;4185;41.506;24.938;2023-02-04T05:10:07;92988.78;;;-1.59;81.14
8294;BME280;4185;41.506;24.938;2023-02-04T05:12:34;92979.28;;;-1.60;80.51
8294;BME280;4185;41.506;24.938;2023-02-04T05:15:01;92988.63;;;-1.68;80.24
8294;BME280;4185;41.506;24.938;2023-02-04T05:17:29;92989.13;;;-1.73;80.46
8294;BME280;4185;41.506;24.938;2023-02-04T05:19:56;92991.47;;;-1.75;80.90
8294;BME280;4185;41.506;24.938;2023-02-04T05:22:23;92986.13;;;-1.75;81.69
8294;BME280;4185;41.506;24.938;2023-02-04T05:24:50;92978.38;;;-1.70;81.33
8294;BME280;4185;41.506;24.938;2023-02-04T05:27:16;92979.28;;;-1.60;80.92
8294;BME280;4185;41.506;24.938;2023-02-04T05:29:43;92971.84;;;-1.53;80.89
8294;BME280;4185;41.506;24.938;2023-02-04T05:32:10;92985.38;;;-1.47;80.26
8294;BME280;4185;41.506;24.938;2023-02-04T05:34:38;92982.59;;;-1.56;79.54
8294;BME280;4185;41.506;24.938;2023-02-04T05:37:05;92971.94;;;-1.56;80.56
8294;BME280;4185;41.506;24.938;2023-02-04T05:39:32;92986.41;;;-1.57;80.03
8294;BME280;4185;41.506;24.938;2023-02-04T05:41:59;92987.25;;;-1.60;79.99
8294;BME280;4185;41.506;24.938;2023-02-04T05:44:26;92990.34;;;-1.62;79.70
8294;BME280;4185;41.506;24.938;2023-02-04T05:46:54;92992.47;;;-1.69;80.00
8294;BME280;4185;41.506;24.938;2023-02-04T05:49:21;92996.78;;;-1.75;80.79
8294;BME280;4185;41.506;24.938;2023-02-04T05:51:50;92994.97;;;-1.78;81.27
8294;BME280;4185;41.506;24.938;2023-02-04T05:54:17;93006.53;;;-1.85;81.88
8294;BME280;4185;41.506;24.938;2023-02-04T05:56:45;93003.72;;;-1.78;81.96
8294;BME280;4185;41.506;24.938;2023-02-04T05:59:12;93000.09;;;-1.71;81.48
8294;BME280;4185;41.506;24.938;2023-02-04T06:01:39;92994.38;;;-1.70;81.42
8294;BME280;4185;41.506;24.938;2023-02-04T06:04:05;92992.47;;;-1.69;81.25
8294;BME280;4185;41.506;24.938;2023-02-04T06:06:32;92996.13;;;-1.79;81.36
8294;BME280;4185;41.506;24.938;2023-02-04T06:09:00;92998.38;;;-1.78;81.43
8294;BME280;4185;41.506;24.938;2023-02-04T06:11:27;92990.78;;;-1.79;81.23
8294;BME280;4185;41.506;24.938;2023-02-04T06:13:54;92978.28;;;-1.95;81.69
8294;BME280;4185;41.506;24.938;2023-02-04T06:16:21;92991.72;;;-1.86;82.30
8294;BME280;4185;41.506;24.938;2023-02-04T06:18:48;92996.81;;;-1.91;82.17
8294;BME280;4185;41.506;24.938;2023-02-04T06:21:15;93002.22;;;-1.95;82.75
8294;BME280;4185;41.506;24.938;2023-02-04T06:23:42;92999.50;;;-1.91;82.64
8294;BME280;4185;41.506;24.938;2023-02-04T06:26:10;92999.53;;;-1.79;82.79
8294;BME280;4185;41.506;24.938;2023-02-04T06:28:37;93007.25;;;-1.68;82.03
8294;BME280;4185;41.506;24.938;2023-02-04T06:31:04;92994.38;;;-1.70;81.09
8294;BME280;4185;41.506;24.938;2023-02-04T06:33:34;93006.22;;;-1.58;81.45
8294;BME280;4185;41.506;24.938;2023-02-04T06:36:01;92999.69;;;-1.41;81.37
8294;BME280;4185;41.506;24.938;2023-02-04T06:38:28;93006.13;;;-1.26;80.83
8294;BME280;4185;41.506;24.938;2023-02-04T06:40:55;92993.13;;;-1.24;79.78
8294;BME280;4185;41.506;24.938;2023-02-04T06:43:23;92983.00;;;-1.29;79.24
8294;BME280;4185;41.506;24.938;2023-02-04T06:45:52;92986.19;;;-1.34;79.72
8294;BME280;4185;41.506;24.938;2023-02-04T06:48:19;92990.31;;;-1.33;80.03
8294;BME280;4185;41.506;24.938;2023-02-04T06:50:46;92984.06;;;-1.27;80.60
8294;BME280;4185;41.506;24.938;2023-02-04T06:53:13;92985.13;;;-1.24;79.64
8294;BME280;4185;41.506;24.938;2023-02-04T06:55:40;92976.28;;;-1.21;79.81
8294;BME280;4185;41.506;24.938;2023-02-04T06:58:07;92981.63;;;-1.21;80.19
8294;BME280;4185;41.506;24.938;2023-02-04T07:00:35;92983.88;;;-1.19;80.10
8294;BME280;4185;41.506;24.938;2023-02-04T07:03:02;92969.25;;;-1.15;79.88
8294;BME280;4185;41.506;24.938;2023-02-04T07:05:31;92973.19;;;-1.19;79.64
8294;BME280;4185;41.506;24.938;2023-02-04T07:07:58;92971.63;;;-1.17;79.74
8294;BME280;4185;41.506;24.938;2023-02-04T07:10:25;92955.84;;;-1.24;79.42
8294;BME280;4185;41.506;24.938;2023-02-04T07:12:52;92980.81;;;-1.05;78.37
8294;BME280;4185;41.506;24.938;2023-02-04T07:15:19;92974.53;;;-0.99;77.95
8294;BME280;4185;41.506;24.938;2023-02-04T07:17:47;92979.13;;;-0.87;77.68
8294;BME280;4185;41.506;24.938;2023-02-04T07:20:14;92978.38;;;-0.75;77.15
8294;BME280;4185;41.506;24.938;2023-02-04T07:22:41;92980.00;;;-0.65;77.11
8294;BME280;4185;41.506;24.938;2023-02-04T07:25:08;92970.72;;;-0.73;77.43
8294;BME280;4185;41.506;24.938;2023-02-04T07:27:36;92960.06;;;-0.73;77.56
8294;BME280;4185;41.506;24.938;2023-02-04T07:30:03;92964.63;;;-0.73;77.32
8294;BME280;4185;41.506;24.938;2023-02-04T07:32:30;92962.06;;;-0.77;77.30
8294;BME280;4185;41.506;24.938;2023-02-04T07:34:59;92954.16;;;-0.80;77.88
8294;BME280;4185;41.506;24.938;2023-02-04T07:37:26;92955.34;;;-0.81;78.55
8294;BME280;4185;41.506;24.938;2023-02-04T07:39:56;92964.72;;;-0.77;78.56
8294;BME280;4185;41.506;24.938;2023-02-04T07:42:24;92956.00;;;-0.65;78.27
8294;BME280;4185;41.506;24.938;2023-02-04T07:44:51;92967.06;;;-0.54;78.40
8294;BME280;4185;41.506;24.938;2023-02-04T07:47:18;92959.38;;;-0.39;77.63
8294;BME280;4185;41.506;24.938;2023-02-04T07:49:44;92962.13;;;-0.30;76.41
8294;BME280;4185;41.506;24.938;2023-02-04T07:52:13;92968.00;;;-0.23;76.57
8294;BME280;4185;41.506;24.938;2023-02-04T07:54:40;92973.72;;;-0.12;76.64
8294;BME280;4185;41.506;24.938;2023-02-04T07:57:07;92961.91;;;-0.11;75.76
8294;BME280;4185;41.506;24.938;2023-02-04T07:59:34;92961.78;;;-0.07;75.51
8294;BME280;4185;41.506;24.938;2023-02-04T08:02:01;92960.69;;;0.03;74.83
8294;BME280;4185;41.506;24.938;2023-02-04T08:04:27;92951.69;;;0.10;74.30
8294;BME280;4185;41.506;24.938;2023-02-04T08:06:54;92950.34;;;0.27;73.70
8294;BME280;4185;41.506;24.938;2023-02-04T08:09:23;92949.16;;;0.28;73.50
8294;BME280;4185;41.506;24.938;2023-02-04T08:11:51;92949.25;;;0.37;73.64
8294;BME280;4185;41.506;24.938;2023-02-04T08:14:18;92939.88;;;0.54;73.86
8294;BME280;4185;41.506;24.938;2023-02-04T08:16:45;92946.91;;;0.60;73.79
8294;BME280;4185;41.506;24.938;2023-02-04T08:19:12;92938.50;;;0.71;72.79
8294;BME280;4185;41.506;24.938;2023-02-04T08:21:43;92939.81;;;0.88;72.29
8294;BME280;4185;41.506;24.938;2023-02-04T08:24:10;92931.69;;;1.00;70.34
8294;BME280;4185;41.506;24.938;2023-02-04T08:26:39;92924.31;;;1.13;70.09
8294;BME280;4185;41.506;24.938;2023-02-04T08:29:06;92933.00;;;1.27;70.02
8294;BME280;4185;41.506;24.938;2023-02-04T08:31:33;92927.38;;;1.34;69.95
8294;BME280;4185;41.506;24.938;2023-02-04T08:34:01;92919.88;;;1.50;68.98
8294;BME280;4185;41.506;24.938;2023-02-04T08:36:28;92915.72;;;1.58;68.87
8294;BME280;4185;41.506;24.938;2023-02-04T08:38:54;92920.50;;;1.72;68.68
8294;BME280;4185;41.506;24.938;2023-02-04T08:41:21;92929.47;;;1.87;69.04
8294;BME280;4185;41.506;24.938;2023-02-04T08:43:49;92931.72;;;1.98;68.19
8294;BME280;4185;41.506;24.938;2023-02-04T08:46:16;92926.81;;;2.05;67.49
8294;BME280;4185;41.506;24.938;2023-02-04T08:48:43;92928.59;;;2.17;66.68
8294;BME280;4185;41.506;24.938;2023-02-04T08:51:10;92916.09;;;2.32;65.13
8294;BME280;4185;41.506;24.938;2023-02-04T08:53:37;92916.56;;;2.40;65.46
8294;BME280;4185;41.506;24.938;2023-02-04T08:56:05;92904.50;;;2.54;65.63
8294;BME280;4185;41.506;24.938;2023-02-04T08:58:33;92896.13;;;2.70;64.48
8294;BME280;4185;41.506;24.938;2023-02-04T09:01:01;92896.97;;;2.85;63.51
8294;BME280;4185;41.506;24.938;2023-02-04T09:03:28;92896.50;;;3.04;61.99
8294;BME280;4185;41.506;24.938;2023-02-04T09:05:55;92891.81;;;3.23;61.47
8294;BME280;4185;41.506;24.938;2023-02-04T09:08:22;92893.03;;;3.45;61.78
8294;BME280;4185;41.506;24.938;2023-02-04T09:10:49;92881.03;;;3.64;59.59
8294;BME280;4185;41.506;24.938;2023-02-04T09:13:16;92880.19;;;3.82;60.12
8294;BME280;4185;41.506;24.938;2023-02-04T09:15:43;92878.13;;;4.01;60.17
8294;BME280;4185;41.506;24.938;2023-02-04T09:18:11;92881.88;;;4.18;58.94
8294;BME280;4185;41.506;24.938;2023-02-04T09:20:41;92862.16;;;4.35;59.11
8294;BME280;4185;41.506;24.938;2023-02-04T09:23:08;92863.78;;;4.56;59.14
8294;BME280;4185;41.506;24.938;2023-02-04T09:25:37;92848.47;;;4.77;58.09
8294;BME280;4185;41.506;24.938;2023-02-04T09:28:04;92849.44;;;4.88;58.05
8294;BME280;4185;41.506;24.938;2023-02-04T09:30:31;92821.13;;;4.64;57.53
8294;BME280;4185;41.506;24.938;2023-02-04T09:32:58;92835.41;;;4.84;56.57
8294;BME280;4185;41.506;24.938;2023-02-04T09:35:27;92822.25;;;4.86;56.73
8294;BME280;4185;41.506;24.938;2023-02-04T09:37:54;92822.25;;;4.86;56.10
8294;BME280;4185;41.506;24.938;2023-02-04T09:40:21;92817.34;;;4.85;55.99
8294;BME280;4185;41.506;24.938;2023-02-04T09:42:49;92805.72;;;4.93;55.24
8294;BME280;4185;41.506;24.938;2023-02-04T09:45:18;92815.53;;;5.11;55.16
8294;BME280;4185;41.506;24.938;2023-02-04T09:47:47;92812.88;;;5.31;54.68
8294;BME280;4185;41.506;24.938;2023-02-04T09:50:15;92791.84;;;5.50;53.91
8294;BME280;4185;41.506;24.938;2023-02-04T09:52:45;92803.09;;;5.68;51.26
8294;BME280;4185;41.506;24.938;2023-02-04T09:55:14;92799.69;;;6.08;52.47
8294;BME280;4185;41.506;24.938;2023-02-04T09:57:41;92794.13;;;6.37;50.66
8294;BME280;4185;41.506;24.938;2023-02-04T10:00:14;92796.63;;;6.66;49.82
8294;BME280;4185;41.506;24.938;2023-02-04T10:02:41;92789.50;;;6.94;49.62
8294;BME280;4185;41.506;24.938;2023-02-04T10:05:12;92791.84;;;6.81;48.30
8294;BME280;4185;41.506;24.938;2023-02-04T10:07:40;92794.97;;;6.74;45.90
8294;BME280;4185;41.506;24.938;2023-02-04T10:10:13;92783.22;;;7.08;44.36
8294;BME280;4185;41.506;24.938;2023-02-04T10:12:43;92762.56;;;7.00;43.01
8294;BME280;4185;41.506;24.938;2023-02-04T10:15:12;92762.56;;;7.05;44.01
8294;BME280;4185;41.506;24.938;2023-02-04T10:17:40;92765.59;;;6.82;43.24
8294;BME280;4185;41.506;24.938;2023-02-04T10:20:12;92759.56;;;6.67;42.87
8294;BME280;4185;41.506;24.938;2023-02-04T10:22:39;92762.06;;;6.70;44.27
8294;BME280;4185;41.506;24.938;2023-02-04T10:25:12;92755.09;;;6.58;43.02
8294;BME280;4185;41.506;24.938;2023-02-04T10:27:50;92747.53;;;6.62;42.42
8294;BME280;4185;41.506;24.938;2023-02-04T10:32:46;92751.00;;;6.68;44.43
8294;BME280;4185;41.506;24.938;2023-02-04T10:35:16;92745.44;;;6.77;43.09
8294;BME280;4185;41.506;24.938;2023-02-04T10:37:43;92745.22;;;7.17;43.33
8294;BME280;4185;41.506;24.938;2023-02-04T10:40:29;92735.56;;;7.00;43.23
8294;BME280;4185;41.506;24.938;2023-02-04T10:42:57;92734.97;;;6.90;43.87
8294;BME280;4185;41.506;24.938;2023-02-04T10:45:29;92736.09;;;7.09;43.44
8294;BME280;4185;41.506;24.938;2023-02-04T10:47:56;92726.75;;;7.47;42.42
8294;BME280;4185;41.506;24.938;2023-02-04T10:50:24;92721.28;;;7.95;41.37
8294;BME280;4185;41.506;24.938;2023-02-04T10:52:53;92724.59;;;8.37;39.96
8294;BME280;4185;41.506;24.938;2023-02-04T10:55:42;92725.84;;;8.42;41.36
8294;BME280;4185;41.506;24.938;2023-02-04T10:58:12;92720.94;;;8.68;39.97
8294;BME280;4185;41.506;24.938;2023-02-04T11:00:41;92722.38;;;8.36;38.65
8294;BME280;4185;41.506;24.938;2023-02-04T11:03:11;92710.59;;;8.61;36.82
8294;BME280;4185;41.506;24.938;2023-02-04T11:05:41;92703.22;;;9.00;37.60
8294;BME280;4185;41.506;24.938;2023-02-04T11:08:19;92707.91;;;8.55;38.98
8294;BME280;4185;41.506;24.938;2023-02-04T11:10:54;92709.84;;;8.33;39.39
8294;BME280;4185;41.506;24.938;2023-02-04T11:13:24;92697.00;;;8.17;39.66
8294;BME280;4185;41.506;24.938;2023-02-04T11:16:07;92690.09;;;8.10;39.97
8294;BME280;4185;41.506;24.938;2023-02-04T11:18:45;92696.19;;;7.89;40.12
8294;BME280;4185;41.506;24.938;2023-02-04T11:21:21;92688.06;;;7.78;40.83
8294;BME280;4185;41.506;24.938;2023-02-04T11:23:49;92698.56;;;7.65;39.48
8294;BME280;4185;41.506;24.938;2023-02-04T11:26:31;92698.03;;;7.55;39.86
8294;BME280;4185;41.506;24.938;2023-02-04T11:29:26;92686.19;;;7.41;40.27
8294;BME280;4185;41.506;24.938;2023-02-04T11:32:01;92682.47;;;7.33;39.96
8294;BME280;4185;41.506;24.938;2023-02-04T11:34:45;92689.16;;;7.43;39.08
8294;BME280;4185;41.506;24.938;2023-02-04T11:37:33;92683.22;;;7.39;38.27
8294;BME280;4185;41.506;24.938;2023-02-04T11:40:01;92685.22;;;7.44;38.74
8294;BME280;4185;41.506;24.938;2023-02-04T11:42:40;92687.72;;;7.54;38.79
8294;BME280;4185;41.506;24.938;2023-02-04T11:45:12;92680.06;;;7.47;39.15
8294;BME280;4185;41.506;24.938;2023-02-04T11:47:40;92679.34;;;7.52;39.67
8294;BME280;4185;41.506;24.938;2023-02-04T11:50:14;92674.69;;;7.52;38.52
8294;BME280;4185;41.506;24.938;2023-02-04T11:52:42;92687.94;;;7.50;39.02
8294;BME280;4185;41.506;24.938;2023-02-04T11:55:10;92677.44;;;7.58;39.95
8294;BME280;4185;41.506;24.938;2023-02-04T11:57:39;92668.09;;;7.70;39.58
8294;BME280;4185;41.506;24.938;2023-02-04T12:00:12;92671.88;;;8.05;39.50
8294;BME280;4185;41.506;24.938;2023-02-04T12:02:41;92668.75;;;8.90;38.52
8294;BME280;4185;41.506;24.938;2023-02-04T12:05:11;92665.53;;;9.08;37.08
8294;BME280;4185;41.506;24.938;2023-02-04T12:07:38;92663.38;;;8.84;37.77
8294;BME280;4185;41.506;24.938;2023-02-04T12:10:24;92660.63;;;9.74;37.01
8294;BME280;4185;41.506;24.938;2023-02-04T12:12:54;92655.78;;;10.14;35.67
8294;BME280;4185;41.506;24.938;2023-02-04T12:15:23;92651.13;;;9.51;36.79
8294;BME280;4185;41.506;24.938;2023-02-04T12:18:01;92648.16;;;10.47;34.51
8294;BME280;4185;41.506;24.938;2023-02-04T12:20:28;92636.44;;;10.87;33.47
8294;BME280;4185;41.506;24.938;2023-02-04T12:22:55;92636.81;;;10.08;34.40
8294;BME280;4185;41.506;24.938;2023-02-04T12:25:23;92640.97;;;9.63;34.11
8294;BME280;4185;41.506;24.938;2023-02-04T12:27:52;92649.75;;;9.85;35.40
8294;BME280;4185;41.506;24.938;2023-02-04T12:30:20;92648.34;;;9.68;36.03
8294;BME280;4185;41.506;24.938;2023-02-04T12:32:47;92655.63;;;9.32;35.46
8294;BME280;4185;41.506;24.938;2023-02-04T12:35:14;92638.47;;;9.08;36.33
8294;BME280;4185;41.506;24.938;2023-02-04T12:37:41;92639.47;;;8.88;35.56
8294;BME280;4185;41.506;24.938;2023-02-04T12:40:12;92651.63;;;9.55;35.41
8294;BME280;4185;41.506;24.938;2023-02-04T12:42:40;92659.44;;;9.70;35.08
8294;BME280;4185;41.506;24.938;2023-02-04T12:45:09;92655.91;;;10.32;35.48
8294;BME280;4185;41.506;24.938;2023-02-04T12:47:36;92659.94;;;9.68;35.33
8294;BME280;4185;41.506;24.938;2023-02-04T12:50:05;92650.75;;;9.09;35.21
8294;BME280;4185;41.506;24.938;2023-02-04T12:52:32;92659.06;;;9.38;35.74
8294;BME280;4185;41.506;24.938;2023-02-04T12:54:59;92663.56;;;9.08;35.75
8294;BME280;4185;41.506;24.938;2023-02-04T12:57:26;92659.63;;;9.09;35.88
8294;BME280;4185;41.506;24.938;2023-02-04T12:59:53;92667.31;;;8.78;37.27
8294;BME280;4185;41.506;24.938;2023-02-04T13:02:23;92662.66;;;8.50;36.22
8294;BME280;4185;41.506;24.938;2023-02-04T13:04:50;92665.34;;;8.45;38.10
8294;BME280;4185;41.506;24.938;2023-02-04T13:07:18;92667.00;;;9.03;37.27
8294;BME280;4185;41.506;24.938;2023-02-04T13:09:46;92667.97;;;9.28;36.71
8294;BME280;4185;41.506;24.938;2023-02-04T13:12:14;92668.19;;;9.30;36.46
8294;BME280;4185;41.506;24.938;2023-02-04T13:14:41;92673.47;;;10.61;35.74
8294;BME280;4185;41.506;24.938;2023-02-04T13:17:09;92680.69;;;10.53;34.95
8294;BME280;4185;41.506;24.938;2023-02-04T13:19:37;92670.03;;;10.90;35.21
8294;BME280;4185;41.506;24.938;2023-02-04T13:22:04;92672.22;;;11.45;33.60
8294;BME280;4185;41.506;24.938;2023-02-04T13:24:31;92672.44;;;10.99;34.12